Rockville, Utah
Current Conditions -  °F | °C
As of 9:15 PM on Tuesday 21 Oct 2014 (Local Time) from KAZC Reporting Station
Scattered Clouds Scattered Clouds  
Wind Chill: 56°   Ceiling: Unl
Heat Index: 56°   Visibility: 10mi
Dew Point: 42°   Wind: 0mph
Humidity: 59%   Direction: NA
Pressure: 30.02"   Gusts: NA
Location:  37.16°N, 113.04°W
Report Text: KAZC 220315Z AUTO 00000KT 10SM SCT075 14/06 A3002 RMK AO2 LTG DSNT NE T01360056
Loading
Personal Weather Stations






























Interactive Weather Map
Tropical Storm Tracking
New forecast layout! Learn more

10-Day Weather Forecast

Advertisements
Track Severe Weather on mobile